sensor_id;sensor_type;location;lat;lon;timestamp;P1;durP1;ratioP1;P2;durP2;ratioP2
53875;SDS011;39789;53.216;5.624;2023-11-19T00:00:49;42.58;;;9.98;;
53875;SDS011;39789;53.216;5.624;2023-11-19T00:03:16;46.83;;;10.43;;
53875;SDS011;39789;53.216;5.624;2023-11-19T00:05:45;54.08;;;10.70;;
53875;SDS011;39789;53.216;5.624;2023-11-19T00:08:11;54.55;;;12.48;;
53875;SDS011;39789;53.216;5.624;2023-11-19T00:10:36;45.45;;;12.18;;
53875;SDS011;39789;53.216;5.624;2023-11-19T00:13:02;57.83;;;11.95;;
53875;SDS011;39789;53.216;5.624;2023-11-19T00:15:28;56.13;;;10.15;;
53875;SDS011;39789;53.216;5.624;2023-11-19T00:17:54;55.70;;;12.98;;
53875;SDS011;39789;53.216;5.624;2023-11-19T00:20:20;49.92;;;11.70;;
53875;SDS011;39789;53.216;5.624;2023-11-19T00:22:47;48.90;;;10.70;;
53875;SDS011;39789;53.216;5.624;2023-11-19T00:25:15;57.00;;;10.70;;
53875;SDS011;39789;53.216;5.624;2023-11-19T00:27:42;61.13;;;12.15;;
53875;SDS011;39789;53.216;5.624;2023-11-19T00:30:09;65.70;;;11.45;;
53875;SDS011;39789;53.216;5.624;2023-11-19T00:32:36;47.70;;;10.55;;
53875;SDS011;39789;53.216;5.624;2023-11-19T00:35:03;54.35;;;11.57;;
53875;SDS011;39789;53.216;5.624;2023-11-19T00:37:30;43.78;;;10.90;;
53875;SDS011;39789;53.216;5.624;2023-11-19T00:39:56;51.38;;;11.57;;
53875;SDS011;39789;53.216;5.624;2023-11-19T00:42:23;48.88;;;11.38;;
53875;SDS011;39789;53.216;5.624;2023-11-19T00:44:49;58.97;;;12.05;;
53875;SDS011;39789;53.216;5.624;2023-11-19T00:47:15;61.78;;;12.32;;
53875;SDS011;39789;53.216;5.624;2023-11-19T00:49:41;73.35;;;12.00;;
53875;SDS011;39789;53.216;5.624;2023-11-19T00:52:07;51.05;;;10.57;;
53875;SDS011;39789;53.216;5.624;2023-11-19T00:54:33;67.72;;;12.10;;
53875;SDS011;39789;53.216;5.624;2023-11-19T00:56:59;63.30;;;11.27;;
53875;SDS011;39789;53.216;5.624;2023-11-19T00:59:26;52.45;;;11.02;;
53875;SDS011;39789;53.216;5.624;2023-11-19T01:01:53;48.67;;;10.57;;
53875;SDS011;39789;53.216;5.624;2023-11-19T01:04:19;62.40;;;12.38;;
53875;SDS011;39789;53.216;5.624;2023-11-19T01:06:45;60.78;;;11.70;;
53875;SDS011;39789;53.216;5.624;2023-11-19T01:09:10;63.72;;;10.23;;
53875;SDS011;39789;53.216;5.624;2023-11-19T01:11:36;53.55;;;11.63;;
53875;SDS011;39789;53.216;5.624;2023-11-19T01:14:02;57.10;;;12.77;;
53875;SDS011;39789;53.216;5.624;2023-11-19T01:16:27;55.05;;;12.10;;
53875;SDS011;39789;53.216;5.624;2023-11-19T01:18:53;60.97;;;13.38;;
53875;SDS011;39789;53.216;5.624;2023-11-19T01:21:19;65.40;;;12.38;;
53875;SDS011;39789;53.216;5.624;2023-11-19T01:23:45;63.53;;;12.35;;
53875;SDS011;39789;53.216;5.624;2023-11-19T01:26:11;62.60;;;11.68;;
53875;SDS011;39789;53.216;5.624;2023-11-19T01:28:37;57.25;;;10.88;;
53875;SDS011;39789;53.216;5.624;2023-11-19T01:31:12;65.38;;;12.63;;
53875;SDS011;39789;53.216;5.624;2023-11-19T01:33:40;71.15;;;12.02;;
53875;SDS011;39789;53.216;5.624;2023-11-19T01:36:07;62.80;;;13.23;;
53875;SDS011;39789;53.216;5.624;2023-11-19T01:38:38;63.90;;;14.45;;
53875;SDS011;39789;53.216;5.624;2023-11-19T01:41:04;65.60;;;12.20;;
53875;SDS011;39789;53.216;5.624;2023-11-19T01:43:33;64.15;;;12.18;;
53875;SDS011;39789;53.216;5.624;2023-11-19T01:46:00;57.88;;;11.77;;
53875;SDS011;39789;53.216;5.624;2023-11-19T01:48:27;65.25;;;12.27;;
53875;SDS011;39789;53.216;5.624;2023-11-19T01:50:53;63.25;;;13.35;;
53875;SDS011;39789;53.216;5.624;2023-11-19T01:53:19;66.20;;;13.13;;
53875;SDS011;39789;53.216;5.624;2023-11-19T01:55:48;73.80;;;13.35;;
53875;SDS011;39789;53.216;5.624;2023-11-19T01:58:14;63.60;;;12.80;;
53875;SDS011;39789;53.216;5.624;2023-11-19T02:00:40;72.03;;;13.13;;
53875;SDS011;39789;53.216;5.624;2023-11-19T02:03:06;61.65;;;12.27;;
53875;SDS011;39789;53.216;5.624;2023-11-19T02:05:33;62.42;;;12.80;;
53875;SDS011;39789;53.216;5.624;2023-11-19T02:08:00;73.88;;;12.70;;
53875;SDS011;39789;53.216;5.624;2023-11-19T02:10:28;57.97;;;13.50;;
53875;SDS011;39789;53.216;5.624;2023-11-19T02:12:54;61.22;;;13.15;;
53875;SDS011;39789;53.216;5.624;2023-11-19T02:15:20;54.00;;;11.55;;
53875;SDS011;39789;53.216;5.624;2023-11-19T02:17:49;55.60;;;12.05;;
53875;SDS011;39789;53.216;5.624;2023-11-19T02:20:15;60.50;;;12.50;;
53875;SDS011;39789;53.216;5.624;2023-11-19T02:22:41;58.55;;;11.43;;
53875;SDS011;39789;53.216;5.624;2023-11-19T02:25:07;59.88;;;11.25;;
53875;SDS011;39789;53.216;5.624;2023-11-19T02:27:57;50.17;;;10.48;;
53875;SDS011;39789;53.216;5.624;2023-11-19T02:30:25;61.70;;;11.53;;
53875;SDS011;39789;53.216;5.624;2023-11-19T02:32:55;50.92;;;11.43;;
53875;SDS011;39789;53.216;5.624;2023-11-19T02:35:22;50.53;;;11.68;;
53875;SDS011;39789;53.216;5.624;2023-11-19T02:37:49;54.90;;;12.20;;
53875;SDS011;39789;53.216;5.624;2023-11-19T02:40:14;63.92;;;11.40;;
53875;SDS011;39789;53.216;5.624;2023-11-19T02:42:40;49.20;;;11.90;;
53875;SDS011;39789;53.216;5.624;2023-11-19T02:45:10;54.10;;;11.23;;
53875;SDS011;39789;53.216;5.624;2023-11-19T02:47:42;53.08;;;11.02;;
53875;SDS011;39789;53.216;5.624;2023-11-19T02:50:09;70.60;;;12.32;;
53875;SDS011;39789;53.216;5.624;2023-11-19T02:52:44;40.33;;;10.13;;
53875;SDS011;39789;53.216;5.624;2023-11-19T02:55:11;57.13;;;11.73;;
53875;SDS011;39789;53.216;5.624;2023-11-19T02:57:39;55.35;;;12.65;;
53875;SDS011;39789;53.216;5.624;2023-11-19T03:00:13;56.90;;;11.20;;
53875;SDS011;39789;53.216;5.624;2023-11-19T03:02:42;64.45;;;12.35;;
53875;SDS011;39789;53.216;5.624;2023-11-19T03:05:15;57.35;;;10.85;;
53875;SDS011;39789;53.216;5.624;2023-11-19T03:07:42;56.00;;;10.40;;
53875;SDS011;39789;53.216;5.624;2023-11-19T03:10:09;49.10;;;10.73;;
53875;SDS011;39789;53.216;5.624;2023-11-19T03:12:41;48.55;;;11.05;;
53875;SDS011;39789;53.216;5.624;2023-11-19T03:15:08;51.83;;;10.88;;
53875;SDS011;39789;53.216;5.624;2023-11-19T03:17:44;46.05;;;11.15;;
53875;SDS011;39789;53.216;5.624;2023-11-19T03:20:10;47.70;;;10.52;;
53875;SDS011;39789;53.216;5.624;2023-11-19T03:22:40;51.95;;;10.95;;
53875;SDS011;39789;53.216;5.624;2023-11-19T03:25:09;53.63;;;10.32;;
53875;SDS011;39789;53.216;5.624;2023-11-19T03:27:35;42.63;;;10.45;;
53875;SDS011;39789;53.216;5.624;2023-11-19T03:30:02;53.92;;;10.95;;
53875;SDS011;39789;53.216;5.624;2023-11-19T03:32:30;48.22;;;9.90;;
53875;SDS011;39789;53.216;5.624;2023-11-19T03:34:57;42.67;;;10.77;;
53875;SDS011;39789;53.216;5.624;2023-11-19T03:37:23;53.33;;;10.57;;
53875;SDS011;39789;53.216;5.624;2023-11-19T03:39:49;47.83;;;9.90;;
53875;SDS011;39789;53.216;5.624;2023-11-19T03:42:14;49.47;;;11.23;;
53875;SDS011;39789;53.216;5.624;2023-11-19T03:44:40;47.35;;;12.10;;
53875;SDS011;39789;53.216;5.624;2023-11-19T03:47:05;45.70;;;10.80;;
53875;SDS011;39789;53.216;5.624;2023-11-19T03:49:31;55.88;;;10.63;;
53875;SDS011;39789;53.216;5.624;2023-11-19T03:51:57;49.08;;;10.88;;
53875;SDS011;39789;53.216;5.624;2023-11-19T03:54:22;59.00;;;11.05;;
53875;SDS011;39789;53.216;5.624;2023-11-19T03:56:48;51.58;;;11.38;;
53875;SDS011;39789;53.216;5.624;2023-11-19T03:59:14;53.72;;;10.88;;
53875;SDS011;39789;53.216;5.624;2023-11-19T04:01:40;62.75;;;11.25;;
53875;SDS011;39789;53.216;5.624;2023-11-19T04:04:06;47.45;;;11.02;;
53875;SDS011;39789;53.216;5.624;2023-11-19T04:06:32;48.40;;;10.55;;
53875;SDS011;39789;53.216;5.624;2023-11-19T04:08:57;47.97;;;10.50;;
53875;SDS011;39789;53.216;5.624;2023-11-19T04:11:23;56.17;;;11.40;;
53875;SDS011;39789;53.216;5.624;2023-11-19T04:13:49;52.95;;;10.88;;
53875;SDS011;39789;53.216;5.624;2023-11-19T04:16:14;50.95;;;12.38;;
53875;SDS011;39789;53.216;5.624;2023-11-19T04:18:40;58.42;;;11.75;;
53875;SDS011;39789;53.216;5.624;2023-11-19T04:21:09;57.63;;;12.82;;
53875;SDS011;39789;53.216;5.624;2023-11-19T04:23:35;49.25;;;11.38;;
53875;SDS011;39789;53.216;5.624;2023-11-19T04:26:04;52.17;;;10.65;;
53875;SDS011;39789;53.216;5.624;2023-11-19T04:28:30;55.53;;;12.32;;
53875;SDS011;39789;53.216;5.624;2023-11-19T04:30:56;57.40;;;12.40;;
53875;SDS011;39789;53.216;5.624;2023-11-19T04:33:21;52.63;;;12.95;;
53875;SDS011;39789;53.216;5.624;2023-11-19T04:35:47;53.55;;;11.98;;
53875;SDS011;39789;53.216;5.624;2023-11-19T04:38:13;61.47;;;11.52;;
53875;SDS011;39789;53.216;5.624;2023-11-19T04:40:39;46.90;;;11.70;;
53875;SDS011;39789;53.216;5.624;2023-11-19T04:43:05;51.80;;;11.57;;
53875;SDS011;39789;53.216;5.624;2023-11-19T04:45:32;54.13;;;12.07;;
53875;SDS011;39789;53.216;5.624;2023-11-19T04:48:00;47.40;;;11.40;;
53875;SDS011;39789;53.216;5.624;2023-11-19T04:50:26;54.17;;;12.82;;
53875;SDS011;39789;53.216;5.624;2023-11-19T04:52:52;50.42;;;11.70;;
53875;SDS011;39789;53.216;5.624;2023-11-19T04:55:19;57.83;;;11.18;;
53875;SDS011;39789;53.216;5.624;2023-11-19T04:57:44;58.90;;;12.02;;
53875;SDS011;39789;53.216;5.624;2023-11-19T05:00:10;59.10;;;13.00;;
53875;SDS011;39789;53.216;5.624;2023-11-19T05:02:36;52.15;;;10.50;;
53875;SDS011;39789;53.216;5.624;2023-11-19T05:05:02;55.55;;;12.27;;
53875;SDS011;39789;53.216;5.624;2023-11-19T05:07:31;50.60;;;10.77;;
53875;SDS011;39789;53.216;5.624;2023-11-19T05:09:56;50.67;;;12.73;;
53875;SDS011;39789;53.216;5.624;2023-11-19T05:12:23;45.17;;;10.57;;
53875;SDS011;39789;53.216;5.624;2023-11-19T05:14:49;51.75;;;10.60;;
53875;SDS011;39789;53.216;5.624;2023-11-19T05:17:18;61.35;;;12.35;;
53875;SDS011;39789;53.216;5.624;2023-11-19T05:19:45;50.08;;;10.88;;
53875;SDS011;39789;53.216;5.624;2023-11-19T05:22:11;60.33;;;12.68;;
53875;SDS011;39789;53.216;5.624;2023-11-19T05:24:37;51.92;;;12.05;;
53875;SDS011;39789;53.216;5.624;2023-11-19T05:27:04;42.30;;;9.63;;
53875;SDS011;39789;53.216;5.624;2023-11-19T05:29:31;52.35;;;11.65;;
53875;SDS011;39789;53.216;5.624;2023-11-19T05:31:57;44.38;;;10.88;;
53875;SDS011;39789;53.216;5.624;2023-11-19T05:34:23;42.50;;;10.98;;
53875;SDS011;39789;53.216;5.624;2023-11-19T05:36:49;53.22;;;11.55;;
53875;SDS011;39789;53.216;5.624;2023-11-19T05:39:15;49.47;;;10.75;;
53875;SDS011;39789;53.216;5.624;2023-11-19T05:41:43;45.55;;;9.55;;
53875;SDS011;39789;53.216;5.624;2023-11-19T05:44:09;44.90;;;9.93;;
53875;SDS011;39789;53.216;5.624;2023-11-19T05:46:34;44.20;;;9.52;;
53875;SDS011;39789;53.216;5.624;2023-11-19T05:49:05;50.60;;;11.60;;
53875;SDS011;39789;53.216;5.624;2023-11-19T05:51:31;48.55;;;10.65;;
53875;SDS011;39789;53.216;5.624;2023-11-19T05:53:56;42.97;;;9.73;;
53875;SDS011;39789;53.216;5.624;2023-11-19T05:56:25;47.38;;;10.23;;
53875;SDS011;39789;53.216;5.624;2023-11-19T05:58:57;48.13;;;10.90;;
53875;SDS011;39789;53.216;5.624;2023-11-19T06:01:24;47.10;;;11.05;;
53875;SDS011;39789;53.216;5.624;2023-11-19T06:03:49;50.97;;;11.75;;
53875;SDS011;39789;53.216;5.624;2023-11-19T06:06:15;46.03;;;10.05;;
53875;SDS011;39789;53.216;5.624;2023-11-19T06:08:41;50.13;;;12.43;;
53875;SDS011;39789;53.216;5.624;2023-11-19T06:11:06;50.28;;;11.70;;
53875;SDS011;39789;53.216;5.624;2023-11-19T06:13:37;44.30;;;10.30;;
53875;SDS011;39789;53.216;5.624;2023-11-19T06:16:03;54.22;;;11.23;;
53875;SDS011;39789;53.216;5.624;2023-11-19T06:18:32;41.80;;;10.73;;
53875;SDS011;39789;53.216;5.624;2023-11-19T06:20:58;52.97;;;11.95;;
53875;SDS011;39789;53.216;5.624;2023-11-19T06:23:25;42.58;;;8.38;;
53875;SDS011;39789;53.216;5.624;2023-11-19T06:25:50;49.15;;;10.23;;
53875;SDS011;39789;53.216;5.624;2023-11-19T06:28:16;42.92;;;9.75;;
53875;SDS011;39789;53.216;5.624;2023-11-19T06:30:42;47.72;;;11.40;;
53875;SDS011;39789;53.216;5.624;2023-11-19T06:33:07;44.90;;;9.82;;
53875;SDS011;39789;53.216;5.624;2023-11-19T06:35:33;47.50;;;10.82;;
53875;SDS011;39789;53.216;5.624;2023-11-19T06:38:01;49.67;;;11.95;;
53875;SDS011;39789;53.216;5.624;2023-11-19T06:40:32;47.38;;;10.25;;
53875;SDS011;39789;53.216;5.624;2023-11-19T06:43:00;43.78;;;9.85;;
53875;SDS011;39789;53.216;5.624;2023-11-19T06:45:27;49.22;;;11.48;;
53875;SDS011;39789;53.216;5.624;2023-11-19T06:47:53;47.03;;;10.38;;
53875;SDS011;39789;53.216;5.624;2023-11-19T06:50:19;38.58;;;9.65;;
53875;SDS011;39789;53.216;5.624;2023-11-19T06:52:45;46.25;;;9.60;;
53875;SDS011;39789;53.216;5.624;2023-11-19T06:55:11;45.13;;;10.10;;
53875;SDS011;39789;53.216;5.624;2023-11-19T06:57:39;48.28;;;9.40;;
53875;SDS011;39789;53.216;5.624;2023-11-19T07:00:05;48.33;;;11.90;;
53875;SDS011;39789;53.216;5.624;2023-11-19T07:02:31;53.47;;;10.82;;
53875;SDS011;39789;53.216;5.624;2023-11-19T07:04:59;43.15;;;9.60;;
53875;SDS011;39789;53.216;5.624;2023-11-19T07:07:28;47.83;;;10.77;;
53875;SDS011;39789;53.216;5.624;2023-11-19T07:09:54;48.42;;;11.35;;
53875;SDS011;39789;53.216;5.624;2023-11-19T07:12:19;48.70;;;10.48;;
53875;SDS011;39789;53.216;5.624;2023-11-19T07:14:45;41.30;;;9.45;;
53875;SDS011;39789;53.216;5.624;2023-11-19T07:17:11;46.83;;;8.70;;
53875;SDS011;39789;53.216;5.624;2023-11-19T07:19:37;59.65;;;12.40;;
53875;SDS011;39789;53.216;5.624;2023-11-19T07:22:03;41.08;;;9.70;;
53875;SDS011;39789;53.216;5.624;2023-11-19T07:24:30;41.85;;;10.73;;
53875;SDS011;39789;53.216;5.624;2023-11-19T07:26:56;45.20;;;9.07;;
53875;SDS011;39789;53.216;5.624;2023-11-19T07:29:22;39.85;;;10.48;;
53875;SDS011;39789;53.216;5.624;2023-11-19T07:31:48;46.08;;;9.90;;
53875;SDS011;39789;53.216;5.624;2023-11-19T07:34:14;46.78;;;10.80;;
53875;SDS011;39789;53.216;5.624;2023-11-19T07:36:40;37.53;;;10.23;;
53875;SDS011;39789;53.216;5.624;2023-11-19T07:39:06;42.00;;;11.27;;
53875;SDS011;39789;53.216;5.624;2023-11-19T07:41:33;44.63;;;9.48;;
53875;SDS011;39789;53.216;5.624;2023-11-19T07:43:59;43.22;;;9.55;;
53875;SDS011;39789;53.216;5.624;2023-11-19T07:46:25;34.78;;;10.15;;
53875;SDS011;39789;53.216;5.624;2023-11-19T07:48:52;47.35;;;12.80;;
53875;SDS011;39789;53.216;5.624;2023-11-19T07:51:20;54.42;;;12.73;;
53875;SDS011;39789;53.216;5.624;2023-11-19T07:53:49;48.30;;;10.65;;
53875;SDS011;39789;53.216;5.624;2023-11-19T07:56:15;61.33;;;10.98;;
53875;SDS011;39789;53.216;5.624;2023-11-19T07:58:41;45.13;;;10.30;;
53875;SDS011;39789;53.216;5.624;2023-11-19T08:01:07;48.03;;;12.18;;
53875;SDS011;39789;53.216;5.624;2023-11-19T08:03:33;39.80;;;10.20;;
53875;SDS011;39789;53.216;5.624;2023-11-19T08:05:59;42.15;;;9.85;;
53875;SDS011;39789;53.216;5.624;2023-11-19T08:08:25;42.50;;;9.15;;
53875;SDS011;39789;53.216;5.624;2023-11-19T08:10:51;49.97;;;10.40;;
53875;SDS011;39789;53.216;5.624;2023-11-19T08:13:18;40.92;;;9.07;;
53875;SDS011;39789;53.216;5.624;2023-11-19T08:15:44;50.88;;;10.60;;
53875;SDS011;39789;53.216;5.624;2023-11-19T08:18:11;47.03;;;9.60;;
53875;SDS011;39789;53.216;5.624;2023-11-19T08:20:36;42.90;;;9.80;;
53875;SDS011;39789;53.216;5.624;2023-11-19T08:23:02;52.90;;;11.82;;
53875;SDS011;39789;53.216;5.624;2023-11-19T08:25:31;52.10;;;12.07;;
53875;SDS011;39789;53.216;5.624;2023-11-19T08:28:01;44.05;;;11.38;;
53875;SDS011;39789;53.216;5.624;2023-11-19T08:30:28;46.60;;;10.55;;
53875;SDS011;39789;53.216;5.624;2023-11-19T08:32:57;44.10;;;10.65;;
53875;SDS011;39789;53.216;5.624;2023-11-19T08:35:23;44.00;;;9.52;;
53875;SDS011;39789;53.216;5.624;2023-11-19T08:37:49;49.75;;;9.98;;
53875;SDS011;39789;53.216;5.624;2023-11-19T08:40:15;50.22;;;10.07;;
53875;SDS011;39789;53.216;5.624;2023-11-19T08:42:40;44.75;;;9.73;;
53875;SDS011;39789;53.216;5.624;2023-11-19T08:45:06;44.33;;;10.65;;
53875;SDS011;39789;53.216;5.624;2023-11-19T08:47:37;40.85;;;10.15;;
53875;SDS011;39789;53.216;5.624;2023-11-19T08:50:02;43.75;;;10.45;;
53875;SDS011;39789;53.216;5.624;2023-11-19T08:52:29;55.47;;;11.90;;
53875;SDS011;39789;53.216;5.624;2023-11-19T08:54:55;49.08;;;9.45;;
53875;SDS011;39789;53.216;5.624;2023-11-19T08:57:21;52.42;;;11.38;;
53875;SDS011;39789;53.216;5.624;2023-11-19T08:59:46;37.53;;;10.60;;
53875;SDS011;39789;53.216;5.624;2023-11-19T09:02:12;46.03;;;9.90;;
53875;SDS011;39789;53.216;5.624;2023-11-19T09:04:38;45.00;;;10.90;;
53875;SDS011;39789;53.216;5.624;2023-11-19T09:07:04;43.72;;;10.88;;
53875;SDS011;39789;53.216;5.624;2023-11-19T09:09:30;41.55;;;10.07;;
53875;SDS011;39789;53.216;5.624;2023-11-19T09:11:55;42.97;;;9.68;;
53875;SDS011;39789;53.216;5.624;2023-11-19T09:14:21;53.10;;;11.15;;
53875;SDS011;39789;53.216;5.624;2023-11-19T09:16:51;50.50;;;11.00;;
53875;SDS011;39789;53.216;5.624;2023-11-19T09:19:17;46.50;;;10.30;;
53875;SDS011;39789;53.216;5.624;2023-11-19T09:21:43;41.58;;;9.60;;
53875;SDS011;39789;53.216;5.624;2023-11-19T09:24:08;48.10;;;10.65;;
53875;SDS011;39789;53.216;5.624;2023-11-19T09:26:36;43.38;;;9.05;;
53875;SDS011;39789;53.216;5.624;2023-11-19T09:29:04;44.92;;;10.02;;
53875;SDS011;39789;53.216;5.624;2023-11-19T09:31:30;41.00;;;10.00;;
53875;SDS011;39789;53.216;5.624;2023-11-19T09:33:55;47.13;;;9.32;;
53875;SDS011;39789;53.216;5.624;2023-11-19T09:36:21;45.42;;;9.85;;
53875;SDS011;39789;53.216;5.624;2023-11-19T09:38:46;40.97;;;8.00;;
53875;SDS011;39789;53.216;5.624;2023-11-19T09:41:12;36.08;;;8.20;;
53875;SDS011;39789;53.216;5.624;2023-11-19T09:43:41;34.30;;;8.23;;
53875;SDS011;39789;53.216;5.624;2023-11-19T09:46:12;30.67;;;8.60;;
53875;SDS011;39789;53.216;5.624;2023-11-19T09:48:40;38.33;;;8.90;;
53875;SDS011;39789;53.216;5.624;2023-11-19T09:51:10;43.95;;;9.82;;
53875;SDS011;39789;53.216;5.624;2023-11-19T09:53:37;30.35;;;8.18;;
53875;SDS011;39789;53.216;5.624;2023-11-19T09:56:04;38.90;;;9.48;;
53875;SDS011;39789;53.216;5.624;2023-11-19T09:58:35;35.97;;;9.68;;
53875;SDS011;39789;53.216;5.624;2023-11-19T10:01:01;33.92;;;8.52;;
53875;SDS011;39789;53.216;5.624;2023-11-19T10:03:35;34.35;;;9.57;;
53875;SDS011;39789;53.216;5.624;2023-11-19T10:06:08;33.40;;;8.85;;
53875;SDS011;39789;53.216;5.624;2023-11-19T10:08:34;42.33;;;9.68;;
53875;SDS011;39789;53.216;5.624;2023-11-19T10:11:02;41.65;;;8.90;;
53875;SDS011;39789;53.216;5.624;2023-11-19T10:13:28;44.88;;;10.13;;
53875;SDS011;39789;53.216;5.624;2023-11-19T10:15:55;37.45;;;9.73;;
53875;SDS011;39789;53.216;5.624;2023-11-19T10:18:25;37.50;;;8.50;;
53875;SDS011;39789;53.216;5.624;2023-11-19T10:20:51;56.65;;;9.38;;
53875;SDS011;39789;53.216;5.624;2023-11-19T10:23:20;40.42;;;8.35;;
53875;SDS011;39789;53.216;5.624;2023-11-19T10:25:46;40.58;;;9.85;;
53875;SDS011;39789;53.216;5.624;2023-11-19T10:28:17;41.60;;;8.55;;
53875;SDS011;39789;53.216;5.624;2023-11-19T10:30:46;39.70;;;8.07;;
53875;SDS011;39789;53.216;5.624;2023-11-19T10:33:14;35.63;;;9.65;;
53875;SDS011;39789;53.216;5.624;2023-11-19T10:35:52;38.15;;;8.73;;
53875;SDS011;39789;53.216;5.624;2023-11-19T10:38:19;37.35;;;8.18;;
53875;SDS011;39789;53.216;5.624;2023-11-19T10:40:45;40.95;;;8.68;;
53875;SDS011;39789;53.216;5.624;2023-11-19T10:43:12;35.97;;;8.32;;
53875;SDS011;39789;53.216;5.624;2023-11-19T10:45:40;38.35;;;9.27;;
53875;SDS011;39789;53.216;5.624;2023-11-19T10:48:06;39.30;;;7.82;;
53875;SDS011;39789;53.216;5.624;2023-11-19T10:50:39;28.98;;;8.07;;
53875;SDS011;39789;53.216;5.624;2023-11-19T10:53:06;29.85;;;7.45;;
53875;SDS011;39789;53.216;5.624;2023-11-19T10:55:34;30.80;;;7.85;;
53875;SDS011;39789;53.216;5.624;2023-11-19T10:58:06;38.50;;;9.30;;
53875;SDS011;39789;53.216;5.624;2023-11-19T11:00:52;39.92;;;8.88;;
53875;SDS011;39789;53.216;5.624;2023-11-19T11:03:24;37.15;;;8.45;;
53875;SDS011;39789;53.216;5.624;2023-11-19T11:05:51;40.50;;;8.88;;
53875;SDS011;39789;53.216;5.624;2023-11-19T11:08:18;37.53;;;8.85;;
53875;SDS011;39789;53.216;5.624;2023-11-19T11:10:50;33.25;;;7.78;;
53875;SDS011;39789;53.216;5.624;2023-11-19T11:13:19;30.63;;;7.88;;
53875;SDS011;39789;53.216;5.624;2023-11-19T11:15:48;34.38;;;6.68;;
53875;SDS011;39789;53.216;5.624;2023-11-19T11:18:15;35.97;;;7.25;;
53875;SDS011;39789;53.216;5.624;2023-11-19T11:20:44;38.05;;;9.20;;
53875;SDS011;39789;53.216;5.624;2023-11-19T11:39:36;37.28;;;7.18;;
53875;SDS011;39789;53.216;5.624;2023-11-19T11:44:58;29.08;;;6.53;;
53875;SDS011;39789;53.216;5.624;2023-11-19T11:50:08;30.95;;;6.93;;
53875;SDS011;39789;53.216;5.624;2023-11-19T11:57:50;28.65;;;7.13;;
53875;SDS011;39789;53.216;5.624;2023-11-19T12:00:26;34.47;;;7.20;;
53875;SDS011;39789;53.216;5.624;2023-11-19T12:02:56;36.17;;;7.82;;
53875;SDS011;39789;53.216;5.624;2023-11-19T12:05:22;29.27;;;6.25;;
53875;SDS011;39789;53.216;5.624;2023-11-19T12:07:55;27.45;;;6.70;;
53875;SDS011;39789;53.216;5.624;2023-11-19T12:10:23;24.95;;;6.78;;
53875;SDS011;39789;53.216;5.624;2023-11-19T12:12:52;25.65;;;6.60;;
53875;SDS011;39789;53.216;5.624;2023-11-19T12:15:18;28.65;;;6.85;;
53875;SDS011;39789;53.216;5.624;2023-11-19T12:17:52;31.75;;;6.85;;
53875;SDS011;39789;53.216;5.624;2023-11-19T12:20:18;24.45;;;6.18;;
53875;SDS011;39789;53.216;5.624;2023-11-19T12:22:45;27.33;;;6.65;;
53875;SDS011;39789;53.216;5.624;2023-11-19T12:25:16;31.85;;;6.97;;
53875;SDS011;39789;53.216;5.624;2023-11-19T12:27:44;30.15;;;7.05;;
53875;SDS011;39789;53.216;5.624;2023-11-19T12:30:11;53.08;;;7.25;;
53875;SDS011;39789;53.216;5.624;2023-11-19T12:32:41;29.27;;;6.65;;
53875;SDS011;39789;53.216;5.624;2023-11-19T12:35:08;34.40;;;6.65;;
53875;SDS011;39789;53.216;5.624;2023-11-19T12:37:43;29.58;;;6.25;;
53875;SDS011;39789;53.216;5.624;2023-11-19T12:40:12;33.45;;;6.57;;
53875;SDS011;39789;53.216;5.624;2023-11-19T12:42:41;35.60;;;7.20;;
53875;SDS011;39789;53.216;5.624;2023-11-19T12:45:07;29.20;;;6.43;;
53875;SDS011;39789;53.216;5.624;2023-11-19T12:47:38;34.47;;;8.25;;
53875;SDS011;39789;53.216;5.624;2023-11-19T12:50:07;33.55;;;6.60;;
53875;SDS011;39789;53.216;5.624;2023-11-19T12:52:34;33.28;;;7.45;;
53875;SDS011;39789;53.216;5.624;2023-11-19T12:55:01;33.63;;;6.63;;
53875;SDS011;39789;53.216;5.624;2023-11-19T12:57:45;31.33;;;7.57;;
53875;SDS011;39789;53.216;5.624;2023-11-19T13:00:22;30.90;;;7.25;;
53875;SDS011;39789;53.216;5.624;2023-11-19T13:02:49;32.83;;;7.28;;
53875;SDS011;39789;53.216;5.624;2023-11-19T13:08:04;33.33;;;8.50;;
53875;SDS011;39789;53.216;5.624;2023-11-19T13:10:31;35.72;;;8.43;;
53875;SDS011;39789;53.216;5.624;2023-11-19T13:13:24;34.83;;;8.10;;
53875;SDS011;39789;53.216;5.624;2023-11-19T13:15:50;34.38;;;6.75;;
53875;SDS011;39789;53.216;5.624;2023-11-19T13:18:16;25.83;;;6.95;;
53875;SDS011;39789;53.216;5.624;2023-11-19T13:20:42;28.85;;;6.32;;
53875;SDS011;39789;53.216;5.624;2023-11-19T13:23:08;35.95;;;6.93;;
53875;SDS011;39789;53.216;5.624;2023-11-19T13:25:34;32.60;;;7.90;;
53875;SDS011;39789;53.216;5.624;2023-11-19T13:28:02;33.80;;;7.35;;
53875;SDS011;39789;53.216;5.624;2023-11-19T13:30:28;33.53;;;7.95;;
53875;SDS011;39789;53.216;5.624;2023-11-19T13:32:54;38.53;;;7.78;;
53875;SDS011;39789;53.216;5.624;2023-11-19T13:35:20;37.53;;;7.63;;
53875;SDS011;39789;53.216;5.624;2023-11-19T13:37:46;33.72;;;6.82;;
53875;SDS011;39789;53.216;5.624;2023-11-19T13:40:12;31.85;;;6.82;;
53875;SDS011;39789;53.216;5.624;2023-11-19T13:42:42;33.85;;;8.25;;
53875;SDS011;39789;53.216;5.624;2023-11-19T13:45:12;39.28;;;7.85;;
53875;SDS011;39789;53.216;5.624;2023-11-19T13:47:39;34.88;;;8.00;;
53875;SDS011;39789;53.216;5.624;2023-11-19T13:50:11;40.95;;;8.02;;
53875;SDS011;39789;53.216;5.624;2023-11-19T13:52:38;40.42;;;7.90;;
53875;SDS011;39789;53.216;5.624;2023-11-19T13:55:06;27.13;;;6.57;;
53875;SDS011;39789;53.216;5.624;2023-11-19T13:57:33;36.45;;;7.57;;
53875;SDS011;39789;53.216;5.624;2023-11-19T14:00:06;38.13;;;8.07;;
53875;SDS011;39789;53.216;5.624;2023-11-19T14:02:38;37.03;;;7.40;;
53875;SDS011;39789;53.216;5.624;2023-11-19T14:05:11;32.38;;;6.82;;
53875;SDS011;39789;53.216;5.624;2023-11-19T14:07:37;36.55;;;7.55;;
53875;SDS011;39789;53.216;5.624;2023-11-19T14:10:03;40.85;;;8.90;;
53875;SDS011;39789;53.216;5.624;2023-11-19T14:12:31;26.45;;;6.70;;
53875;SDS011;39789;53.216;5.624;2023-11-19T14:14:59;38.85;;;7.47;;
53875;SDS011;39789;53.216;5.624;2023-11-19T14:17:25;30.77;;;6.85;;
53875;SDS011;39789;53.216;5.624;2023-11-19T14:19:51;35.20;;;7.38;;
53875;SDS011;39789;53.216;5.624;2023-11-19T14:22:17;39.13;;;7.32;;
53875;SDS011;39789;53.216;5.624;2023-11-19T14:24:43;33.60;;;7.30;;
53875;SDS011;39789;53.216;5.624;2023-11-19T14:27:09;35.60;;;8.70;;
53875;SDS011;39789;53.216;5.624;2023-11-19T14:29:38;39.08;;;7.07;;
53875;SDS011;39789;53.216;5.624;2023-11-19T14:32:05;36.45;;;7.40;;
53875;SDS011;39789;53.216;5.624;2023-11-19T14:34:31;34.72;;;8.57;;
53875;SDS011;39789;53.216;5.624;2023-11-19T14:36:59;32.03;;;7.32;;
53875;SDS011;39789;53.216;5.624;2023-11-19T14:39:25;34.40;;;7.57;;
53875;SDS011;39789;53.216;5.624;2023-11-19T14:41:51;36.33;;;8.23;;
53875;SDS011;39789;53.216;5.624;2023-11-19T14:44:22;37.95;;;8.45;;
53875;SDS011;39789;53.216;5.624;2023-11-19T14:46:49;28.67;;;6.60;;
53875;SDS011;39789;53.216;5.624;2023-11-19T14:49:15;29.30;;;6.30;;
53875;SDS011;39789;53.216;5.624;2023-11-19T14:51:40;34.33;;;6.25;;
53875;SDS011;39789;53.216;5.624;2023-11-19T14:54:06;29.50;;;7.68;;
53875;SDS011;39789;53.216;5.624;2023-11-19T14:56:32;33.85;;;7.53;;
53875;SDS011;39789;53.216;5.624;2023-11-19T14:58:57;28.10;;;6.82;;